sensor_id;sensor_type;location;lat;lon;timestamp;pressure;altitude;pressure_sealevel;temperature;humidity
80678;BME280;70042;52.494;5.502;2023-05-16T00:00:15;102068.44;;;19.05;65.50
80678;BME280;70042;52.494;5.502;2023-05-16T00:02:41;102074.63;;;19.06;65.60
80678;BME280;70042;52.494;5.502;2023-05-16T00:05:06;102079.91;;;19.06;65.61
80678;BME280;70042;52.494;5.502;2023-05-16T00:07:33;102083.44;;;19.05;65.49
80678;BME280;70042;52.494;5.502;2023-05-16T00:09:59;102079.03;;;19.05;65.65
80678;BME280;70042;52.494;5.502;2023-05-16T00:12:25;102083.44;;;19.05;65.08
80678;BME280;70042;52.494;5.502;2023-05-16T00:14:50;102075.50;;;19.05;65.00
80678;BME280;70042;52.494;5.502;2023-05-16T00:17:17;102075.53;;;19.03;65.10
80678;BME280;70042;52.494;5.502;2023-05-16T00:19:44;102074.66;;;19.03;65.43
80678;BME280;70042;52.494;5.502;2023-05-16T00:22:11;102079.06;;;19.02;65.18
80678;BME280;70042;52.494;5.502;2023-05-16T00:24:37;102079.97;;;19.00;65.25
80678;BME280;70042;52.494;5.502;2023-05-16T00:27:02;102079.97;;;19.00;65.12
80678;BME280;70042;52.494;5.502;2023-05-16T00:29:30;102086.16;;;18.99;65.61
80678;BME280;70042;52.494;5.502;2023-05-16T00:31:56;102082.63;;;18.98;65.72
80678;BME280;70042;52.494;5.502;2023-05-16T00:34:21;102081.75;;;18.98;65.16
80678;BME280;70042;52.494;5.502;2023-05-16T00:36:48;102082.63;;;18.98;65.29
80678;BME280;70042;52.494;5.502;2023-05-16T00:39:14;102087.03;;;18.98;65.59
80678;BME280;70042;52.494;5.502;2023-05-16T00:41:40;102089.69;;;18.98;65.43
80678;BME280;70042;52.494;5.502;2023-05-16T00:44:05;102087.03;;;18.98;65.45
80678;BME280;70042;52.494;5.502;2023-05-16T00:46:31;102076.44;;;18.98;65.20
80678;BME280;70042;52.494;5.502;2023-05-16T00:48:57;102074.72;;;18.97;65.09
80678;BME280;70042;52.494;5.502;2023-05-16T00:51:23;102081.78;;;18.96;65.31
80678;BME280;70042;52.494;5.502;2023-05-16T00:53:48;102082.66;;;18.95;65.61
80678;BME280;70042;52.494;5.502;2023-05-16T00:56:14;102075.59;;;18.94;65.66
80678;BME280;70042;52.494;5.502;2023-05-16T00:58:41;102080.06;;;18.94;65.17
80678;BME280;70042;52.494;5.502;2023-05-16T01:01:06;102083.59;;;18.93;65.69
80678;BME280;70042;52.494;5.502;2023-05-16T01:03:32;102084.47;;;18.93;65.36
80678;BME280;70042;52.494;5.502;2023-05-16T01:05:58;102076.53;;;18.93;65.22
80678;BME280;70042;52.494;5.502;2023-05-16T01:08:23;102076.53;;;18.93;65.46
80678;BME280;70042;52.494;5.502;2023-05-16T01:13:32;102080.94;;;18.93;65.43
80678;BME280;70042;52.494;5.502;2023-05-16T01:16:44;102076.53;;;18.92;65.36
80678;BME280;70042;52.494;5.502;2023-05-16T01:19:06;102077.41;;;18.92;64.84
80678;BME280;70042;52.494;5.502;2023-05-16T01:21:47;102073.88;;;18.92;65.12
80678;BME280;70042;52.494;5.502;2023-05-16T01:24:22;102078.28;;;18.93;65.13
80678;BME280;70042;52.494;5.502;2023-05-16T01:26:51;102080.94;;;18.93;65.19
80678;BME280;70042;52.494;5.502;2023-05-16T01:29:18;102081.81;;;18.92;65.03
80678;BME280;70042;52.494;5.502;2023-05-16T01:31:43;102081.81;;;18.92;65.31
80678;BME280;70042;52.494;5.502;2023-05-16T01:34:09;102074.78;;;18.91;64.82
80678;BME280;70042;52.494;5.502;2023-05-16T01:39:43;102084.50;;;18.90;64.84
80678;BME280;70042;52.494;5.502;2023-05-16T01:42:14;102082.78;;;18.88;65.35
80678;BME280;70042;52.494;5.502;2023-05-16T01:44:44;102081.88;;;18.86;65.44
80678;BME280;70042;52.494;5.502;2023-05-16T01:47:12;102082.75;;;18.85;65.18
80678;BME280;70042;52.494;5.502;2023-05-16T01:49:45;102086.34;;;18.84;65.20
80678;BME280;70042;52.494;5.502;2023-05-16T01:52:14;102088.09;;;18.83;65.49
80678;BME280;70042;52.494;5.502;2023-05-16T01:54:43;102096.03;;;18.82;65.03
80678;BME280;70042;52.494;5.502;2023-05-16T01:57:10;102091.66;;;18.81;65.30
80678;BME280;70042;52.494;5.502;2023-05-16T01:59:38;102091.66;;;18.79;65.52
80678;BME280;70042;52.494;5.502;2023-05-16T02:02:04;102092.53;;;18.80;65.10
80678;BME280;70042;52.494;5.502;2023-05-16T02:04:29;102093.44;;;18.79;65.17
80678;BME280;70042;52.494;5.502;2023-05-16T02:06:55;102093.44;;;18.79;65.36
80678;BME280;70042;52.494;5.502;2023-05-16T02:09:21;102089.94;;;18.78;65.01
80678;BME280;70042;52.494;5.502;2023-05-16T02:11:46;102096.94;;;18.79;65.23
80678;BME280;70042;52.494;5.502;2023-05-16T02:14:11;102098.72;;;18.79;65.00
80678;BME280;70042;52.494;5.502;2023-05-16T02:16:37;102093.44;;;18.79;65.18
80678;BME280;70042;52.494;5.502;2023-05-16T02:19:02;102094.31;;;18.79;65.17
80678;BME280;70042;52.494;5.502;2023-05-16T02:21:28;102092.53;;;18.80;65.24
80678;BME280;70042;52.494;5.502;2023-05-16T02:23:53;102095.22;;;18.78;64.95
80678;BME280;70042;52.494;5.502;2023-05-16T02:26:19;102096.06;;;18.79;64.88
80678;BME280;70042;52.494;5.502;2023-05-16T02:28:44;102101.38;;;18.79;65.02
80678;BME280;70042;52.494;5.502;2023-05-16T02:31:10;102104.00;;;18.79;65.19
80678;BME280;70042;52.494;5.502;2023-05-16T02:33:35;102104.94;;;18.78;65.01
80678;BME280;70042;52.494;5.502;2023-05-16T02:36:01;102110.22;;;18.78;64.98
80678;BME280;70042;52.494;5.502;2023-05-16T02:38:26;102111.09;;;18.77;64.99
80678;BME280;70042;52.494;5.502;2023-05-16T02:40:51;102105.81;;;18.77;64.89
80678;BME280;70042;52.494;5.502;2023-05-16T02:43:17;102105.81;;;18.77;64.72
80678;BME280;70042;52.494;5.502;2023-05-16T02:45:42;102109.34;;;18.76;64.96
80678;BME280;70042;52.494;5.502;2023-05-16T02:48:08;102104.97;;;18.75;64.71
80678;BME280;70042;52.494;5.502;2023-05-16T02:50:33;102114.66;;;18.74;65.05
80678;BME280;70042;52.494;5.502;2023-05-16T02:52:59;102114.66;;;18.73;65.14
80678;BME280;70042;52.494;5.502;2023-05-16T02:55:29;102115.59;;;18.72;64.63
80678;BME280;70042;52.494;5.502;2023-05-16T02:57:54;102105.88;;;18.71;64.54
80678;BME280;70042;52.494;5.502;2023-05-16T03:00:20;102110.28;;;18.72;64.63
80678;BME280;70042;52.494;5.502;2023-05-16T03:02:46;102115.56;;;18.70;64.75
80678;BME280;70042;52.494;5.502;2023-05-16T03:05:11;102119.09;;;18.71;64.76
80678;BME280;70042;52.494;5.502;2023-05-16T03:07:37;102123.53;;;18.70;64.76
80678;BME280;70042;52.494;5.502;2023-05-16T03:10:03;102117.34;;;18.70;64.97
80678;BME280;70042;52.494;5.502;2023-05-16T03:12:28;102112.97;;;18.69;64.51
80678;BME280;70042;52.494;5.502;2023-05-16T03:14:54;102115.63;;;18.69;65.00
80678;BME280;70042;52.494;5.502;2023-05-16T03:17:19;102120.91;;;18.69;64.76
80678;BME280;70042;52.494;5.502;2023-05-16T03:19:45;102120.03;;;18.68;64.91
80678;BME280;70042;52.494;5.502;2023-05-16T03:22:10;102118.25;;;18.69;64.62
80678;BME280;70042;52.494;5.502;2023-05-16T03:24:36;102122.66;;;18.68;64.46
80678;BME280;70042;52.494;5.502;2023-05-16T03:27:01;102123.56;;;18.67;64.46
80678;BME280;70042;52.494;5.502;2023-05-16T03:29:29;102123.59;;;18.66;64.68
80678;BME280;70042;52.494;5.502;2023-05-16T03:31:55;102127.06;;;18.66;64.76
80678;BME280;70042;52.494;5.502;2023-05-16T03:34:20;102126.22;;;18.66;64.69
80678;BME280;70042;52.494;5.502;2023-05-16T03:36:47;102123.56;;;18.64;65.04
80678;BME280;70042;52.494;5.502;2023-05-16T03:39:13;102129.75;;;18.63;64.77
80678;BME280;70042;52.494;5.502;2023-05-16T03:41:39;102134.16;;;18.64;64.76
80678;BME280;70042;52.494;5.502;2023-05-16T03:44:04;102135.97;;;18.62;64.56
80678;BME280;70042;52.494;5.502;2023-05-16T03:46:29;102131.56;;;18.62;64.58
80678;BME280;70042;52.494;5.502;2023-05-16T03:48:55;102136.84;;;18.62;64.49
80678;BME280;70042;52.494;5.502;2023-05-16T03:51:20;102140.38;;;18.61;64.32
80678;BME280;70042;52.494;5.502;2023-05-16T03:53:45;102141.25;;;18.60;64.65
80678;BME280;70042;52.494;5.502;2023-05-16T03:56:11;102143.03;;;18.60;64.27
80678;BME280;70042;52.494;5.502;2023-05-16T03:58:36;102141.28;;;18.59;64.42
80678;BME280;70042;52.494;5.502;2023-05-16T04:01:02;102136.84;;;18.59;64.37
80678;BME280;70042;52.494;5.502;2023-05-16T04:03:27;102143.91;;;18.60;64.90
80678;BME280;70042;52.494;5.502;2023-05-16T04:05:54;102145.69;;;18.58;64.74
80678;BME280;70042;52.494;5.502;2023-05-16T04:08:20;102148.34;;;18.57;64.57
80678;BME280;70042;52.494;5.502;2023-05-16T04:10:46;102150.09;;;18.56;64.11
80678;BME280;70042;52.494;5.502;2023-05-16T04:13:13;102146.59;;;18.56;64.53
80678;BME280;70042;52.494;5.502;2023-05-16T04:15:39;102139.53;;;18.55;64.56
80678;BME280;70042;52.494;5.502;2023-05-16T04:18:04;102141.31;;;18.54;64.39
80678;BME280;70042;52.494;5.502;2023-05-16T04:20:30;102152.78;;;18.53;64.59
80678;BME280;70042;52.494;5.502;2023-05-16T04:22:55;102159.84;;;18.54;64.29
80678;BME280;70042;52.494;5.502;2023-05-16T04:25:21;102149.25;;;18.54;63.93
80678;BME280;70042;52.494;5.502;2023-05-16T04:27:46;102156.34;;;18.52;64.40
80678;BME280;70042;52.494;5.502;2023-05-16T04:30:12;102156.34;;;18.52;64.50
80678;BME280;70042;52.494;5.502;2023-05-16T04:32:39;102158.97;;;18.52;64.37
80678;BME280;70042;52.494;5.502;2023-05-16T04:35:05;102162.50;;;18.53;64.10
80678;BME280;70042;52.494;5.502;2023-05-16T04:37:33;102159.88;;;18.53;64.47
80678;BME280;70042;52.494;5.502;2023-05-16T04:39:58;102162.50;;;18.51;64.73
80678;BME280;70042;52.494;5.502;2023-05-16T04:42:24;102163.38;;;18.50;64.13
80678;BME280;70042;52.494;5.502;2023-05-16T04:44:49;102177.53;;;18.49;64.46
80678;BME280;70042;52.494;5.502;2023-05-16T04:47:15;102168.69;;;18.50;64.63
80678;BME280;70042;52.494;5.502;2023-05-16T04:49:40;102171.31;;;18.49;64.44
80678;BME280;70042;52.494;5.502;2023-05-16T04:52:06;102177.53;;;18.49;64.53
80678;BME280;70042;52.494;5.502;2023-05-16T04:54:32;102173.97;;;18.47;64.09
80678;BME280;70042;52.494;5.502;2023-05-16T04:56:58;102181.91;;;18.47;64.04
80678;BME280;70042;52.494;5.502;2023-05-16T04:59:23;102178.38;;;18.47;64.53
80678;BME280;70042;52.494;5.502;2023-05-16T05:01:48;102182.81;;;18.46;64.35
80678;BME280;70042;52.494;5.502;2023-05-16T05:04:14;102184.53;;;18.47;64.35
80678;BME280;70042;52.494;5.502;2023-05-16T05:06:40;102188.09;;;18.46;63.94
80678;BME280;70042;52.494;5.502;2023-05-16T05:09:05;102182.81;;;18.46;64.07
80678;BME280;70042;52.494;5.502;2023-05-16T05:11:31;102192.50;;;18.46;64.20
80678;BME280;70042;52.494;5.502;2023-05-16T05:13:57;102188.09;;;18.46;64.59
80678;BME280;70042;52.494;5.502;2023-05-16T05:16:22;102186.34;;;18.45;64.51
80678;BME280;70042;52.494;5.502;2023-05-16T05:18:47;102195.16;;;18.44;64.12
80678;BME280;70042;52.494;5.502;2023-05-16T05:21:13;102196.91;;;18.44;64.13
80678;BME280;70042;52.494;5.502;2023-05-16T05:23:39;102193.41;;;18.43;64.32
80678;BME280;70042;52.494;5.502;2023-05-16T05:26:04;102196.94;;;18.42;64.03
80678;BME280;70042;52.494;5.502;2023-05-16T05:28:30;102197.81;;;18.41;64.14
80678;BME280;70042;52.494;5.502;2023-05-16T05:30:55;102203.13;;;18.43;63.99
80678;BME280;70042;52.494;5.502;2023-05-16T05:33:25;102192.53;;;18.43;64.01
80678;BME280;70042;52.494;5.502;2023-05-16T05:35:53;102204.88;;;18.42;64.06
80678;BME280;70042;52.494;5.502;2023-05-16T05:38:19;102207.53;;;18.42;64.30
80678;BME280;70042;52.494;5.502;2023-05-16T05:40:45;102207.53;;;18.42;64.19
80678;BME280;70042;52.494;5.502;2023-05-16T05:43:10;102213.69;;;18.41;64.15
80678;BME280;70042;52.494;5.502;2023-05-16T05:45:36;102218.13;;;18.42;64.34
80678;BME280;70042;52.494;5.502;2023-05-16T05:48:02;102215.47;;;18.42;64.23
80678;BME280;70042;52.494;5.502;2023-05-16T05:50:27;102227.81;;;18.42;64.04
80678;BME280;70042;52.494;5.502;2023-05-16T05:52:54;102221.66;;;18.43;64.40
80678;BME280;70042;52.494;5.502;2023-05-16T05:55:20;102228.69;;;18.42;64.12
80678;BME280;70042;52.494;5.502;2023-05-16T05:57:46;102233.09;;;18.42;64.05
80678;BME280;70042;52.494;5.502;2023-05-16T06:00:11;102228.69;;;18.42;64.06
80678;BME280;70042;52.494;5.502;2023-05-16T06:02:37;102230.44;;;18.45;64.11
80678;BME280;70042;52.494;5.502;2023-05-16T06:05:02;102224.25;;;18.50;64.50
80678;BME280;70042;52.494;5.502;2023-05-16T06:07:28;102229.50;;;18.56;64.33
80678;BME280;70042;52.494;5.502;2023-05-16T06:09:53;102232.13;;;18.59;63.93
80678;BME280;70042;52.494;5.502;2023-05-16T06:12:19;102233.00;;;18.63;63.91
80678;BME280;70042;52.494;5.502;2023-05-16T06:14:44;102240.94;;;18.64;64.10
80678;BME280;70042;52.494;5.502;2023-05-16T06:17:09;102239.16;;;18.63;63.82
80678;BME280;70042;52.494;5.502;2023-05-16T06:19:35;102241.81;;;18.63;64.03
80678;BME280;70042;52.494;5.502;2023-05-16T06:22:00;102241.84;;;18.62;63.61
80678;BME280;70042;52.494;5.502;2023-05-16T06:24:26;102256.81;;;18.63;64.11
80678;BME280;70042;52.494;5.502;2023-05-16T06:26:53;102251.56;;;18.61;63.88
80678;BME280;70042;52.494;5.502;2023-05-16T06:29:19;102262.16;;;18.61;64.19
80678;BME280;70042;52.494;5.502;2023-05-16T06:31:44;102266.53;;;18.66;64.14
80678;BME280;70042;52.494;5.502;2023-05-16T06:34:11;102252.38;;;18.71;63.53
80678;BME280;70042;52.494;5.502;2023-05-16T06:36:37;102257.63;;;18.76;63.25
80678;BME280;70042;52.494;5.502;2023-05-16T06:39:02;102259.38;;;18.81;63.21
80678;BME280;70042;52.494;5.502;2023-05-16T06:41:29;102268.16;;;18.83;63.31
80678;BME280;70042;52.494;5.502;2023-05-16T06:43:55;102269.06;;;18.84;63.11
80678;BME280;70042;52.494;5.502;2023-05-16T06:46:21;102282.28;;;18.84;63.00
80678;BME280;70042;52.494;5.502;2023-05-16T06:48:46;102277.00;;;18.82;63.53
80678;BME280;70042;52.494;5.502;2023-05-16T06:51:12;102290.22;;;18.82;63.71
80678;BME280;70042;52.494;5.502;2023-05-16T06:53:37;102284.97;;;18.81;63.70
80678;BME280;70042;52.494;5.502;2023-05-16T06:56:03;102283.19;;;18.80;63.62
80678;BME280;70042;52.494;5.502;2023-05-16T06:58:28;102293.78;;;18.80;63.40
80678;BME280;70042;52.494;5.502;2023-05-16T07:00:53;102286.75;;;18.77;63.64
80678;BME280;70042;52.494;5.502;2023-05-16T07:03:19;102283.22;;;18.77;63.71
80678;BME280;70042;52.494;5.502;2023-05-16T07:05:44;102284.97;;;18.76;63.64
80678;BME280;70042;52.494;5.502;2023-05-16T07:08:10;102273.50;;;18.77;63.93
80678;BME280;70042;52.494;5.502;2023-05-16T07:10:36;102286.72;;;18.79;63.34
80678;BME280;70042;52.494;5.502;2023-05-16T07:13:02;102282.28;;;18.84;63.35
80678;BME280;70042;52.494;5.502;2023-05-16T07:15:29;102291.09;;;18.86;63.46
80678;BME280;70042;52.494;5.502;2023-05-16T07:17:55;102289.34;;;18.88;63.52
80678;BME280;70042;52.494;5.502;2023-05-16T07:20:21;102283.13;;;18.89;63.40
80678;BME280;70042;52.494;5.502;2023-05-16T07:22:47;102279.59;;;18.90;63.62
80678;BME280;70042;52.494;5.502;2023-05-16T07:25:12;102290.16;;;18.93;63.91
80678;BME280;70042;52.494;5.502;2023-05-16T07:27:40;102284.84;;;18.96;63.44
80678;BME280;70042;52.494;5.502;2023-05-16T07:30:06;102288.34;;;18.98;63.44
80678;BME280;70042;52.494;5.502;2023-05-16T07:32:33;102280.44;;;18.95;63.29
80678;BME280;70042;52.494;5.502;2023-05-16T07:34:58;102291.91;;;18.97;63.38
80678;BME280;70042;52.494;5.502;2023-05-16T07:37:24;102291.88;;;19.00;63.29
80678;BME280;70042;52.494;5.502;2023-05-16T07:39:49;102286.53;;;19.04;63.00
80678;BME280;70042;52.494;5.502;2023-05-16T07:42:15;102283.03;;;19.02;63.08
80678;BME280;70042;52.494;5.502;2023-05-16T07:44:40;102280.41;;;18.99;63.75
80678;BME280;70042;52.494;5.502;2023-05-16T07:47:06;102283.94;;;19.00;63.59
80678;BME280;70042;52.494;5.502;2023-05-16T07:49:31;102287.47;;;18.97;63.18
80678;BME280;70042;52.494;5.502;2023-05-16T07:51:57;102291.91;;;18.97;63.70
80678;BME280;70042;52.494;5.502;2023-05-16T07:54:22;102283.03;;;19.01;63.25
80678;BME280;70042;52.494;5.502;2023-05-16T07:56:47;102291.88;;;19.03;63.58
80678;BME280;70042;52.494;5.502;2023-05-16T07:59:13;102298.88;;;19.07;63.44
80678;BME280;70042;52.494;5.502;2023-05-16T08:01:38;102286.53;;;19.06;63.36
80678;BME280;70042;52.494;5.502;2023-05-16T08:04:04;102291.88;;;19.03;63.14
80678;BME280;70042;52.494;5.502;2023-05-16T08:06:29;102290.94;;;19.05;63.36
80678;BME280;70042;52.494;5.502;2023-05-16T08:08:55;102299.75;;;19.07;63.23
80678;BME280;70042;52.494;5.502;2023-05-16T08:11:20;102291.84;;;19.06;63.14
80678;BME280;70042;52.494;5.502;2023-05-16T08:13:49;102289.13;;;19.12;62.89
80678;BME280;70042;52.494;5.502;2023-05-16T08:16:15;102297.09;;;19.12;63.09
80678;BME280;70042;52.494;5.502;2023-05-16T08:18:40;102295.25;;;19.17;62.58
80678;BME280;70042;52.494;5.502;2023-05-16T08:21:07;102300.56;;;19.17;62.67
80678;BME280;70042;52.494;5.502;2023-05-16T08:23:35;102303.19;;;19.20;62.73
80678;BME280;70042;52.494;5.502;2023-05-16T08:26:01;102300.47;;;19.26;62.74
80678;BME280;70042;52.494;5.502;2023-05-16T08:28:28;102311.94;;;19.30;62.19
80678;BME280;70042;52.494;5.502;2023-05-16T08:30:53;102306.66;;;19.28;62.80
80678;BME280;70042;52.494;5.502;2023-05-16T08:33:19;102311.09;;;19.23;62.48
80678;BME280;70042;52.494;5.502;2023-05-16T08:35:45;102309.34;;;19.25;63.00
80678;BME280;70042;52.494;5.502;2023-05-16T08:38:11;102305.84;;;19.20;62.78
80678;BME280;70042;52.494;5.502;2023-05-16T08:40:36;102317.34;;;19.19;62.83
80678;BME280;70042;52.494;5.502;2023-05-16T08:43:01;102308.53;;;19.15;62.82
80678;BME280;70042;52.494;5.502;2023-05-16T08:45:29;102308.50;;;19.17;62.83
80678;BME280;70042;52.494;5.502;2023-05-16T08:47:55;102312.97;;;19.15;63.24
80678;BME280;70042;52.494;5.502;2023-05-16T08:50:23;102312.09;;;19.13;63.02
80678;BME280;70042;52.494;5.502;2023-05-16T08:52:51;102306.75;;;19.19;62.85
80678;BME280;70042;52.494;5.502;2023-05-16T08:55:19;102301.41;;;19.21;62.78
80678;BME280;70042;52.494;5.502;2023-05-16T08:57:48;102304.97;;;19.16;63.02
80678;BME280;70042;52.494;5.502;2023-05-16T09:00:15;102311.16;;;19.17;63.21
80678;BME280;70042;52.494;5.502;2023-05-16T09:02:42;102303.16;;;19.25;63.11
80678;BME280;70042;52.494;5.502;2023-05-16T09:05:10;102301.34;;;19.31;63.02
80678;BME280;70042;52.494;5.502;2023-05-16T09:07:36;102304.88;;;19.32;62.45
80678;BME280;70042;52.494;5.502;2023-05-16T09:10:02;102308.38;;;19.34;62.37
80678;BME280;70042;52.494;5.502;2023-05-16T09:12:28;102312.81;;;19.30;62.76
80678;BME280;70042;52.494;5.502;2023-05-16T09:14:53;102308.44;;;19.26;62.49
80678;BME280;70042;52.494;5.502;2023-05-16T09:17:20;102312.88;;;19.24;62.58
80678;BME280;70042;52.494;5.502;2023-05-16T09:19:45;102316.34;;;19.29;63.20
80678;BME280;70042;52.494;5.502;2023-05-16T09:22:13;102312.81;;;19.35;62.97
80678;BME280;70042;52.494;5.502;2023-05-16T09:24:43;102315.41;;;19.36;62.65
80678;BME280;70042;52.494;5.502;2023-05-16T09:27:09;102302.16;;;19.36;62.57
80678;BME280;70042;52.494;5.502;2023-05-16T09:29:35;102311.00;;;19.38;62.46
80678;BME280;70042;52.494;5.502;2023-05-16T09:32:07;102318.94;;;19.43;62.07
80678;BME280;70042;52.494;5.502;2023-05-16T09:34:37;102312.72;;;19.45;62.58
80678;BME280;70042;52.494;5.502;2023-05-16T09:37:03;102318.00;;;19.48;62.57
80678;BME280;70042;52.494;5.502;2023-05-16T09:39:29;102322.38;;;19.52;62.71
80678;BME280;70042;52.494;5.502;2023-05-16T09:41:54;102316.19;;;19.52;62.32
80678;BME280;70042;52.494;5.502;2023-05-16T09:44:23;102314.44;;;19.52;62.50
80678;BME280;70042;52.494;5.502;2023-05-16T09:46:49;102325.00;;;19.55;62.32
80678;BME280;70042;52.494;5.502;2023-05-16T09:49:14;102333.03;;;19.46;62.50
80678;BME280;70042;52.494;5.502;2023-05-16T09:51:40;102333.94;;;19.42;62.30
80678;BME280;70042;52.494;5.502;2023-05-16T09:54:09;102337.47;;;19.47;62.34
80678;BME280;70042;52.494;5.502;2023-05-16T09:56:47;102342.69;;;19.52;62.32
80678;BME280;70042;52.494;5.502;2023-05-16T09:59:13;102334.75;;;19.53;62.29
80678;BME280;70042;52.494;5.502;2023-05-16T10:01:40;102335.59;;;19.55;62.08
80678;BME280;70042;52.494;5.502;2023-05-16T10:04:05;102332.03;;;19.58;62.29
80678;BME280;70042;52.494;5.502;2023-05-16T10:06:31;102336.41;;;19.63;61.99
80678;BME280;70042;52.494;5.502;2023-05-16T10:08:56;102326.69;;;19.65;61.85
80678;BME280;70042;52.494;5.502;2023-05-16T10:11:23;102334.63;;;19.65;62.07
80678;BME280;70042;52.494;5.502;2023-05-16T10:13:50;102331.06;;;19.68;62.04
80678;BME280;70042;52.494;5.502;2023-05-16T10:16:17;102331.94;;;19.67;62.30
80678;BME280;70042;52.494;5.502;2023-05-16T10:18:45;102326.75;;;19.59;62.10
80678;BME280;70042;52.494;5.502;2023-05-16T10:21:14;102341.81;;;19.53;62.48
80678;BME280;70042;52.494;5.502;2023-05-16T10:23:41;102342.72;;;19.50;61.93
80678;BME280;70042;52.494;5.502;2023-05-16T10:26:07;102355.09;;;19.48;61.58
80678;BME280;70042;52.494;5.502;2023-05-16T10:28:34;102343.56;;;19.57;61.84
80678;BME280;70042;52.494;5.502;2023-05-16T10:31:00;102338.16;;;19.64;61.66
80678;BME280;70042;52.494;5.502;2023-05-16T10:33:27;102340.75;;;19.70;61.73
80678;BME280;70042;52.494;5.502;2023-05-16T10:35:52;102330.97;;;19.79;61.44
80678;BME280;70042;52.494;5.502;2023-05-16T10:38:20;102339.75;;;19.84;60.65
80678;BME280;70042;52.494;5.502;2023-05-16T10:40:46;102332.59;;;19.89;60.36
80678;BME280;70042;52.494;5.502;2023-05-16T10:43:28;102328.16;;;19.94;61.42
80678;BME280;70042;52.494;5.502;2023-05-16T10:46:08;102335.22;;;19.95;61.42
80678;BME280;70042;52.494;5.502;2023-05-16T10:48:34;102330.75;;;19.97;61.32
80678;BME280;70042;52.494;5.502;2023-05-16T10:51:01;102328.06;;;20.00;61.33
80678;BME280;70042;52.494;5.502;2023-05-16T10:53:34;102329.84;;;20.01;60.97
80678;BME280;70042;52.494;5.502;2023-05-16T11:01:34;102332.50;;;19.99;60.95
80678;BME280;70042;52.494;5.502;2023-05-16T11:04:00;102337.84;;;19.98;61.56
80678;BME280;70042;52.494;5.502;2023-05-16T11:06:32;102335.19;;;19.98;61.19
80678;BME280;70042;52.494;5.502;2023-05-16T11:19:47;102331.63;;;19.99;61.51
80678;BME280;70042;52.494;5.502;2023-05-16T11:27:25;102321.84;;;20.02;61.42
80678;BME280;70042;52.494;5.502;2023-05-16T11:29:52;102334.22;;;20.02;61.91
80678;BME280;70042;52.494;5.502;2023-05-16T11:32:19;102326.28;;;20.02;61.48
80678;BME280;70042;52.494;5.502;2023-05-16T11:34:48;102329.84;;;20.01;61.69
80678;BME280;70042;52.494;5.502;2023-05-16T11:37:15;102334.25;;;20.00;61.56
80678;BME280;70042;52.494;5.502;2023-05-16T11:39:41;102335.16;;;20.01;61.11
80678;BME280;70042;52.494;5.502;2023-05-16T11:42:07;102338.69;;;20.00;61.32
80678;BME280;70042;52.494;5.502;2023-05-16T11:44:34;102345.75;;;20.01;61.30
80678;BME280;70042;52.494;5.502;2023-05-16T11:46:59;102345.75;;;20.01;61.34
80678;BME280;70042;52.494;5.502;2023-05-16T11:49:27;102343.97;;;20.03;61.49
80678;BME280;70042;52.494;5.502;2023-05-16T11:51:53;102351.03;;;20.04;61.54
80678;BME280;70042;52.494;5.502;2023-05-16T11:54:20;102340.38;;;20.05;61.23
80678;BME280;70042;52.494;5.502;2023-05-16T11:56:46;102343.03;;;20.07;61.15
80678;BME280;70042;52.494;5.502;2023-05-16T11:59:11;102340.38;;;20.07;61.53
80678;BME280;70042;52.494;5.502;2023-05-16T12:01:38;102340.38;;;20.07;61.00
80678;BME280;70042;52.494;5.502;2023-05-16T12:04:12;102347.44;;;20.08;60.88
80678;BME280;70042;52.494;5.502;2023-05-16T12:06:39;102340.41;;;20.04;60.82
80678;BME280;70042;52.494;5.502;2023-05-16T12:09:05;102338.69;;;20.00;61.02
80678;BME280;70042;52.494;5.502;2023-05-16T12:11:42;102343.19;;;19.95;61.03
80678;BME280;70042;52.494;5.502;2023-05-16T12:14:10;102339.69;;;19.91;60.74
80678;BME280;70042;52.494;5.502;2023-05-16T12:16:36;102344.13;;;19.86;60.97
80678;BME280;70042;52.494;5.502;2023-05-16T12:19:04;102344.16;;;19.85;61.31
80678;BME280;70042;52.494;5.502;2023-05-16T12:21:31;102348.59;;;19.84;60.88
80678;BME280;70042;52.494;5.502;2023-05-16T12:23:56;102342.34;;;19.90;60.97
80678;BME280;70042;52.494;5.502;2023-05-16T12:26:26;102355.59;;;19.91;61.28
80678;BME280;70042;52.494;5.502;2023-05-16T12:28:56;102352.03;;;19.92;61.05
80678;BME280;70042;52.494;5.502;2023-05-16T12:31:25;102343.19;;;19.95;60.61
80678;BME280;70042;52.494;5.502;2023-05-16T12:33:53;102345.84;;;19.95;60.68
80678;BME280;70042;52.494;5.502;2023-05-16T12:36:22;102342.25;;;19.96;60.79
80678;BME280;70042;52.494;5.502;2023-05-16T12:38:48;102347.53;;;19.99;60.75
80678;BME280;70042;52.494;5.502;2023-05-16T12:41:23;102344.00;;;20.00;60.47
80678;BME280;70042;52.494;5.502;2023-05-16T12:43:48;102349.31;;;20.00;60.20
80678;BME280;70042;52.494;5.502;2023-05-16T12:46:14;102350.19;;;20.00;60.64
80678;BME280;70042;52.494;5.502;2023-05-16T12:48:40;102351.97;;;19.98;60.11
80678;BME280;70042;52.494;5.502;2023-05-16T12:51:14;102347.56;;;19.96;60.84
80678;BME280;70042;52.494;5.502;2023-05-16T12:53:44;102347.59;;;19.93;60.26
80678;BME280;70042;52.494;5.502;2023-05-16T12:56:14;102353.81;;;19.92;60.63
80678;BME280;70042;52.494;5.502;2023-05-16T12:58:40;102357.38;;;19.91;60.12
80678;BME280;70042;52.494;5.502;2023-05-16T13:01:06;102350.31;;;19.88;60.54
80678;BME280;70042;52.494;5.502;2023-05-16T13:03:33;102353.00;;;19.85;60.73
80678;BME280;70042;52.494;5.502;2023-05-16T13:05:59;102348.63;;;19.81;60.39
80678;BME280;70042;52.494;5.502;2023-05-16T13:08:26;102354.84;;;19.79;60.36
80678;BME280;70042;52.494;5.502;2023-05-16T13:10:51;102365.47;;;19.76;60.94
80678;BME280;70042;52.494;5.502;2023-05-16T13:13:17;102362.84;;;19.73;61.01